Time;durP1;ratioP1;P1;durP2;ratioP2;P2;SDS_P1;SDS_P2;PMS_P1;PMS_P2;Temp;Humidity;BMP_temperature;BMP_pressure;BME280_temperature;BME280_humidity;BME280_pressure;Samples;Min_cycle;Max_cycle;Signal;HPM_P1;HPM_P2
2021/12/25 00:00:44;;;;;;;;;;;-0.90;99.90;;;;;;5071539;28;20364;-76
2021/12/25 00:03:10;;;;;;;;;;;-0.90;99.90;;;;;;5071366;28;19924;-77
2021/12/25 00:05:35;;;;;;;;;;;-0.90;99.90;;;;;;5071182;28;19964;-76
2021/12/25 00:08:01;;;;;;;;;;;-0.90;99.90;;;;;;5071266;28;19971;-76
2021/12/25 00:10:30;;;;;;;;;;;-1.00;99.90;;;;;;5092560;28;19927;-76
2021/12/25 00:12:56;;;;;;;;;;;-1.00;99.90;;;;;;5093054;28;20020;-77
2021/12/25 00:15:21;;;;;;;;;;;-1.00;99.90;;;;;;5074753;28;20400;-76
2021/12/25 00:17:47;;;;;;;;;;;-1.00;99.90;;;;;;5075069;28;19920;-76
2021/12/25 00:20:12;;;;;;;;;;;-1.10;99.90;;;;;;5074611;28;20470;-77
2021/12/25 00:22:38;;;;;;;;;;;-1.10;99.90;;;;;;5074830;28;19927;-76
2021/12/25 00:25:04;;;;;;;;;;;-1.10;99.90;;;;;;5074180;28;20286;-76
2021/12/25 00:27:41;;;;;;;;;;;-1.10;99.90;;;;;;5074437;28;20010;-76
2021/12/25 00:30:15;;;;;;;;;;;-1.20;99.90;;;;;;5057936;28;19973;-76
2021/12/25 00:35:06;;;;;;;;;;;-1.20;99.90;;;;;;5074895;28;19927;-77
2021/12/25 00:37:32;;;;;;;;;;;-1.20;99.90;;;;;;5074205;28;19920;-76
2021/12/25 00:39:57;;;;;;;;;;;-1.20;99.90;;;;;;5074420;28;19920;-76
2021/12/25 00:42:23;;;;;;;;;;;-1.20;99.90;;;;;;5074310;28;20011;-76
2021/12/25 00:44:49;;;;;;;;;;;-1.30;99.90;;;;;;5074517;28;20294;-76
2021/12/25 00:47:14;;;;;;;;;;;-1.30;99.90;;;;;;5074535;28;19979;-76
2021/12/25 00:49:40;;;;;;;;;;;-1.30;99.90;;;;;;5074353;28;19920;-76
2021/12/25 00:52:05;;;;;;;;;;;-1.30;99.90;;;;;;5074094;28;19931;-76
2021/12/25 00:54:31;;;;;;;;;;;-1.40;99.90;;;;;;5074330;28;19956;-76
2021/12/25 00:56:57;;;;;;;;;;;-1.30;99.90;;;;;;5074589;28;19924;-76
2021/12/25 00:59:22;;;;;;;;;;;-1.40;99.90;;;;;;5073880;28;19920;-76
2021/12/25 01:01:48;;;;;;;;;;;-1.40;99.90;;;;;;5073669;28;19951;-76
2021/12/25 01:04:13;;;;;;;;;;;-1.40;99.90;;;;;;5070525;28;19927;-76
2021/12/25 01:06:39;;;;;;;;;;;-1.40;99.90;;;;;;5087601;28;19920;-76
2021/12/25 01:09:05;;;;;;;;;;;-1.40;99.90;;;;;;5087264;28;19931;-76
2021/12/25 01:11:32;;;;;;;;;;;-1.40;99.90;;;;;;5053954;28;19924;-76
2021/12/25 01:14:05;;;;;;;;;;;-1.40;99.90;;;;;;5087501;28;19920;-76
2021/12/25 01:37:47;;;;;;;;;;;-1.50;98.30;;;;;;5053177;28;19974;-76
2021/12/25 01:40:42;;;;;;;;;;;-1.50;98.20;;;;;;5069531;28;19924;-76
2021/12/25 01:48:38;;;;;;;;;;;-1.50;97.40;;;;;;5070864;28;19920;-76
2021/12/25 01:51:03;;;;;;;;;;;-1.50;99.10;;;;;;5054839;28;19928;-76
2021/12/25 01:53:29;;;;;;;;;;;-1.50;99.90;;;;;;5067373;28;19920;-76
2021/12/25 01:55:54;;;;;;;;;;;-1.40;98.10;;;;;;5053023;28;19921;-76
2021/12/25 01:58:20;;;;;;;;;;;-1.50;99.50;;;;;;5065268;28;19966;-76
2021/12/25 02:00:47;;;;;;;;;;;-1.40;98.20;;;;;;5072404;28;19926;-76
2021/12/25 02:03:14;;;;;;;;;;;-1.50;98.10;;;;;;5055531;28;20374;-76
2021/12/25 02:05:40;;;;;;;;;;;-1.50;98.20;;;;;;5052684;28;19920;-76
2021/12/25 02:08:06;;;;;;;;;;;-1.50;98.00;;;;;;5085808;28;19921;-75
2021/12/25 02:10:31;;;;;;;;;;;-1.50;99.90;;;;;;5059819;28;20297;-75
2021/12/25 02:12:57;;;;;;;;;;;-1.50;98.90;;;;;;5072609;28;20485;-76
2021/12/25 02:15:25;;;;;;;;;;;-1.50;98.60;;;;;;5072191;28;19920;-75
2021/12/25 02:18:04;;;;;;;;;;;-1.50;97.60;;;;;;5056342;28;19920;-75
2021/12/25 02:20:36;;;;;;;;;;;-1.50;98.20;;;;;;5072619;28;19935;-76
2021/12/25 02:23:10;;;;;;;;;;;-1.60;99.30;;;;;;5072673;28;20287;-75
2021/12/25 02:25:36;;;;;;;;;;;-1.60;99.30;;;;;;5071630;28;19920;-75
2021/12/25 02:28:03;;;;;;;;;;;-1.60;99.70;;;;;;5061341;28;19927;-75
2021/12/25 02:30:29;;;;;;;;;;;-1.60;99.90;;;;;;5052197;28;20378;-73
2021/12/25 02:32:58;;;;;;;;;;;-1.60;99.90;;;;;;5051720;28;19920;-74
2021/12/25 02:35:24;;;;;;;;;;;-1.60;99.90;;;;;;5052100;28;19920;-73
2021/12/25 02:37:50;;;;;;;;;;;-1.70;99.90;;;;;;5052103;28;19920;-74
2021/12/25 02:40:15;;;;;;;;;;;-1.70;99.90;;;;;;5051948;28;19920;-74
2021/12/25 02:42:42;;;;;;;;;;;-1.70;99.90;;;;;;5085500;28;20385;-74
2021/12/25 02:45:15;;;;;;;;;;;-1.70;99.90;;;;;;5085232;28;20382;-75
2021/12/25 02:47:42;;;;;;;;;;;-1.80;99.50;;;;;;5069910;28;20374;-76
2021/12/25 02:50:09;;;;;;;1.35;0.45;;;-1.80;99.40;;;;;;5051358;28;19946;-75
2021/12/25 02:52:35;;;;;;;1.42;0.25;;;-1.80;99.30;;;;;;5035083;28;20055;-75
2021/12/25 02:55:01;;;;;;;0.98;0.30;;;-1.80;99.10;;;;;;5069246;28;20502;-75
2021/12/25 02:57:26;;;;;;;1.43;0.20;;;-1.80;98.90;;;;;;5050206;28;20496;-76
2021/12/25 02:59:52;;;;;;;2.40;0.38;;;-1.80;98.70;;;;;;5068102;28;20792;-75
2021/12/25 03:02:18;;;;;;;2.35;0.40;;;-1.80;99.00;;;;;;5062426;28;20402;-75
2021/12/25 03:04:47;;;;;;;1.70;0.20;;;-1.80;99.00;;;;;;5070046;28;20573;-75
2021/12/25 03:07:13;;;;;;;1.20;0.20;;;-1.80;97.90;;;;;;5053162;28;20417;-75
2021/12/25 03:09:40;;;;;;;2.67;0.40;;;-1.80;99.80;;;;;;5070107;28;20483;-75
2021/12/25 03:12:08;;;;;;;1.80;0.22;;;-1.80;99.40;;;;;;5070297;28;20457;-75
2021/12/25 03:14:39;;;;;;;2.80;0.40;;;-1.90;99.90;;;;;;5069692;28;20484;-75
2021/12/25 03:17:05;;;;;;;2.28;0.50;;;-1.90;99.90;;;;;;5070367;28;20784;-75
2021/12/25 03:19:34;;;;;;;2.33;0.28;;;-1.90;99.90;;;;;;5070373;28;20455;-75
2021/12/25 03:22:03;;;;;;;2.58;0.22;;;-1.90;99.60;;;;;;5069984;28;20840;-75
2021/12/25 03:24:29;;;;;;;3.22;0.40;;;-1.90;99.90;;;;;;5070244;28;21298;-75
2021/12/25 03:26:57;;;;;;;3.07;0.30;;;-1.90;99.20;;;;;;5069971;28;20406;-75
2021/12/25 03:29:24;;;;;;;2.05;0.38;;;-2.00;99.30;;;;;;5069739;28;20402;-75
2021/12/25 03:31:50;;;;;;;3.10;0.30;;;-2.00;99.00;;;;;;5087997;28;21369;-75
2021/12/25 03:34:16;;;;;;;2.40;0.20;;;-2.00;99.30;;;;;;5088115;28;20390;-75
2021/12/25 03:36:42;;;;;;;1.77;0.30;;;-2.00;99.40;;;;;;5070255;28;20490;-75
2021/12/25 03:39:08;;;;;;;2.93;0.40;;;-2.00;99.90;;;;;;5069488;28;20398;-75
2021/12/25 03:41:34;;;;;;;2.23;0.40;;;-2.00;99.80;;;;;;5069634;28;21045;-75
2021/12/25 03:44:01;;;;;;;1.42;0.20;;;-2.00;99.90;;;;;;5070714;28;20427;-75
2021/12/25 03:46:31;;;;;;;2.63;0.30;;;-2.00;99.80;;;;;;5073895;28;20413;-75
2021/12/25 03:49:08;;;;;;;1.90;0.20;;;-2.00;99.90;;;;;;5056881;28;20409;-75
2021/12/25 03:59:55;;;;;;;1.45;0.30;;;-2.00;99.90;;;;;;5073179;28;20408;-75
2021/12/25 04:02:26;;;;;;;2.78;0.50;;;-2.00;99.90;;;;;;5078860;28;20407;-75
2021/12/25 04:04:52;;;;;;;4.03;0.73;;;-2.00;99.90;;;;;;5070906;28;20390;-75
2021/12/25 04:07:42;;;;;;;2.67;0.40;;;-2.00;99.90;;;;;;5053284;28;20778;-75
2021/12/25 04:10:05;;;;;;;1.33;0.30;;;-2.10;99.90;;;;;;5070837;28;20762;-75
2021/12/25 04:12:30;;;;;;;3.00;0.38;;;-2.10;99.90;;;;;;5070836;28;20925;-75
2021/12/25 04:14:56;;;;;;;2.47;0.32;;;-2.10;99.90;;;;;;5071090;28;20408;-75
2021/12/25 04:17:22;;;;;;;3.05;0.50;;;-2.10;99.90;;;;;;5052846;28;20762;-75
2021/12/25 04:19:47;;;;;;;2.23;0.30;;;-2.10;99.90;;;;;;5052926;28;20422;-75
2021/12/25 04:22:23;;;;;;;2.07;0.30;;;-2.10;99.90;;;;;;5070930;28;20416;-75
2021/12/25 04:24:50;;;;;;;2.00;0.30;;;-2.10;99.90;;;;;;5070704;28;20814;-75
2021/12/25 04:27:17;;;;;;;2.58;0.30;;;-2.10;99.90;;;;;;5036149;28;20410;-75
2021/12/25 05:02:20;;;;;;;5.18;0.20;;;-2.10;99.90;;;;;;5064289;28;20135;-75
2021/12/25 05:04:51;;;;;;;0.57;0.20;;;-2.10;99.90;;;;;;5056931;28;20048;-75
2021/12/25 05:07:17;;;;;;;1.40;0.20;;;-2.10;99.90;;;;;;5069734;28;20518;-74
2021/12/25 05:09:43;;;;;;;1.45;0.28;;;-2.10;99.90;;;;;;5070994;28;20052;-74
2021/12/25 05:12:09;;;;;;;3.83;0.22;;;-2.10;99.90;;;;;;5069642;28;20396;-75
2021/12/25 05:14:34;;;;;;;1.73;0.25;;;-2.10;99.90;;;;;;5070390;28;20082;-74
2021/12/25 05:17:00;;;;;;;1.83;0.10;;;-2.10;99.90;;;;;;5069954;28;20131;-74
2021/12/25 05:19:26;;;;;;;2.83;0.20;;;-2.20;99.90;;;;;;5052474;28;20404;-74
2021/12/25 05:21:52;;;;;;;3.00;0.60;;;-2.20;99.90;;;;;;5069341;28;20129;-74
2021/12/25 05:24:18;;;;;;;2.13;0.40;;;-2.30;99.90;;;;;;5069553;28;20059;-74
2021/12/25 05:26:44;;;;;;;1.23;0.22;;;-2.30;99.90;;;;;;5052714;28;20759;-75
2021/12/25 05:29:09;;;;;;;0.85;0.30;;;-2.40;99.90;;;;;;5069190;28;20048;-74
2021/12/25 05:31:37;;;;;;;2.75;0.20;;;-2.40;99.90;;;;;;5069159;28;20131;-74
2021/12/25 05:34:03;;;;;;;1.15;0.20;;;-2.40;99.90;;;;;;5069468;28;20047;-75
2021/12/25 05:36:29;;;;;;;2.50;0.40;;;-2.50;99.90;;;;;;5069681;28;20051;-74
2021/12/25 05:38:58;;;;;;;3.22;0.55;;;-2.60;99.90;;;;;;5052487;28;20422;-75
2021/12/25 05:41:26;;;;;;;1.45;0.20;;;-2.60;99.90;;;;;;5070920;28;20044;-74
2021/12/25 05:43:52;;;;;;;0.80;0.30;;;-2.60;99.90;;;;;;5069163;28;20063;-74
2021/12/25 05:46:17;;;;;;;2.70;0.30;;;-2.60;99.90;;;;;;5052348;28;20044;-74
2021/12/25 05:48:45;;;;;;;2.60;0.30;;;-2.70;99.90;;;;;;5069441;28;20462;-73
2021/12/25 05:51:12;;;;;;;1.85;0.20;;;-2.70;99.90;;;;;;5052408;28;20044;-72
2021/12/25 05:53:38;;;;;;;1.30;0.20;;;-2.70;99.90;;;;;;5052443;28;20131;-73
2021/12/25 05:56:04;;;;;;;2.30;0.20;;;-2.70;99.90;;;;;;5069159;28;20123;-75
2021/12/25 05:58:30;;;;;;;2.55;0.20;;;-2.70;99.90;;;;;;5069126;28;20045;-75
2021/12/25 06:00:55;;;;;;;2.85;0.20;;;-2.70;99.90;;;;;;5068131;28;20119;-75
2021/12/25 06:03:21;;;;;;;3.15;0.50;;;-2.70;99.90;;;;;;5049087;28;20098;-75
2021/12/25 06:05:47;;;;;;;2.17;0.30;;;-2.80;99.90;;;;;;5051094;28;20045;-75
2021/12/25 06:08:13;;;;;;;3.00;0.50;;;-2.80;99.90;;;;;;5051339;28;20082;-75
2021/12/25 06:10:40;;;;;;;3.47;0.30;;;-2.80;99.90;;;;;;5035168;28;20072;-75
2021/12/25 06:13:10;;;;;;;2.30;0.20;;;-2.80;99.90;;;;;;5035480;28;20059;-75
2021/12/25 06:15:36;;;;;;;1.65;0.13;;;-2.80;99.90;;;;;;5052427;28;20411;-75
2021/12/25 06:18:02;;;;;;;3.17;0.20;;;-2.80;99.90;;;;;;5051897;28;20060;-75
2021/12/25 06:20:28;;;;;;;3.83;0.25;;;-2.80;99.90;;;;;;5051938;28;20110;-73
2021/12/25 06:22:54;;;;;;;2.25;0.63;;;-2.80;99.90;;;;;;5069287;28;20111;-73
2021/12/25 06:25:20;;;;;;;1.58;0.20;;;-2.80;99.90;;;;;;5035419;28;20080;-73
2021/12/25 06:27:46;;;;;;;3.78;0.40;;;-2.80;99.90;;;;;;5035016;28;20078;-72
2021/12/25 06:30:13;;;;;;;1.02;0.20;;;-2.80;99.90;;;;;;5069494;28;20056;-75
2021/12/25 06:32:39;;;;;;;3.10;0.30;;;-2.80;99.90;;;;;;5051659;28;20070;-73
2021/12/25 06:35:05;;;;;;;2.45;0.30;;;-2.80;99.90;;;;;;5051221;28;20049;-73
2021/12/25 06:37:31;;;;;;;1.58;0.30;;;-2.90;99.90;;;;;;5052073;28;20063;-73
2021/12/25 06:39:56;;;;;;;2.08;0.32;;;-2.80;99.90;;;;;;5051353;28;20044;-73
2021/12/25 06:42:22;;;;;;;1.45;0.22;;;-2.80;99.90;;;;;;5051715;28;20055;-73
2021/12/25 06:44:48;;;;;;;1.35;0.20;;;-2.80;99.90;;;;;;5051259;28;20101;-73
2021/12/25 06:47:13;;;;;;;1.17;0.20;;;-2.80;99.90;;;;;;5051469;28;20055;-73
2021/12/25 06:49:39;;;;;;;1.92;0.20;;;-2.80;99.90;;;;;;5051608;28;20735;-73
2021/12/25 06:52:05;;;;;;;5.40;0.50;;;-2.80;99.90;;;;;;5051680;28;20101;-73
2021/12/25 06:54:31;;;;;;;1.13;0.30;;;-2.80;99.90;;;;;;5051321;28;20055;-73
2021/12/25 06:56:56;;;;;;;3.63;0.60;;;-2.80;99.90;;;;;;5068672;28;20047;-73
2021/12/25 06:59:22;;;;;;;2.05;0.25;;;-2.80;99.90;;;;;;5068644;28;20051;-73
2021/12/25 07:01:49;;;;;;;1.92;0.32;;;-2.80;99.90;;;;;;5058982;28;20131;-73
2021/12/25 07:04:15;;;;;;;2.45;0.25;;;-2.80;99.90;;;;;;5071129;28;20047;-73
2021/12/25 07:06:40;;;;;;;3.40;0.30;;;-2.80;99.90;;;;;;5071112;28;20044;-73
2021/12/25 07:09:08;;;;;;;2.45;0.30;;;-2.80;99.90;;;;;;5070760;28;20452;-73
2021/12/25 07:11:35;;;;;;;1.83;0.20;;;-2.80;99.90;;;;;;5088878;28;20040;-73
2021/12/25 07:14:03;;;;;;;5.30;1.25;;;-2.80;99.90;;;;;;5071271;28;20543;-73
2021/12/25 07:16:30;;;;;;;2.20;0.30;;;-2.80;99.90;;;;;;5089190;28;20086;-73
2021/12/25 07:18:55;;;;;;;2.38;0.20;;;-2.80;99.90;;;;;;5090185;28;20066;-73
2021/12/25 07:21:21;;;;;;;1.85;0.40;;;-2.80;99.90;;;;;;5075283;28;20490;-73
2021/12/25 07:23:47;;;;;;;2.03;0.20;;;-2.80;99.90;;;;;;5058838;28;20050;-73
2021/12/25 07:26:16;;;;;;;0.90;0.20;;;-2.80;99.90;;;;;;5093097;28;20079;-76
2021/12/25 07:28:42;;;;;;;2.50;0.63;;;-2.80;99.90;;;;;;5092959;28;20506;-75
2021/12/25 07:31:08;;;;;;;2.25;0.30;;;-2.80;99.90;;;;;;5092449;28;20089;-73
2021/12/25 07:33:36;;;;;;;2.47;0.30;;;-2.80;99.90;;;;;;5074686;28;20077;-73
2021/12/25 07:36:03;;;;;;;4.20;0.32;;;-2.70;99.90;;;;;;5092686;28;20131;-73
2021/12/25 07:38:29;;;;;;;3.03;0.35;;;-2.70;99.90;;;;;;5071400;28;20044;-75
2021/12/25 07:40:55;;;;;;;3.45;0.40;;;-2.60;99.90;;;;;;5090172;28;20056;-74
2021/12/25 07:43:21;;;;;;;7.05;1.10;;;-2.60;99.90;;;;;;5073125;28;20055;-74
2021/12/25 07:45:48;;;;;;;6.22;0.77;;;-2.60;99.90;;;;;;5091178;28;20044;-74
2021/12/25 07:48:18;;;;;;;1.60;0.32;;;-2.60;99.90;;;;;;5072481;28;20052;-74
2021/12/25 07:50:43;;;;;;;4.18;0.73;;;-2.60;99.90;;;;;;5072536;28;20479;-74
2021/12/25 07:53:10;;;;;;;5.28;0.60;;;-2.60;99.90;;;;;;5072456;28;20048;-74
2021/12/25 07:55:36;;;;;;;7.72;1.02;;;-2.60;99.90;;;;;;5071757;28;20659;-74
2021/12/25 07:58:02;;;;;;;2.67;0.63;;;-2.50;99.90;;;;;;5071954;28;20076;-74
2021/12/25 08:00:29;;;;;;;3.50;0.80;;;-2.60;99.90;;;;;;5073061;28;20436;-73
2021/12/25 08:02:55;;;;;;;5.13;1.17;;;-2.60;99.90;;;;;;5072288;28;20090;-73
2021/12/25 08:05:21;;;;;;;4.68;0.73;;;-2.60;99.90;;;;;;5090537;28;20413;-74
2021/12/25 08:07:47;;;;;;;3.90;1.00;;;-2.60;99.90;;;;;;5068819;28;20048;-74
2021/12/25 08:10:13;;;;;;;4.55;1.20;;;-2.60;99.90;;;;;;5069063;28;20566;-74
2021/12/25 08:12:58;;;;;;;8.93;1.08;;;-2.60;99.90;;;;;;5064557;28;20045;-74
2021/12/25 08:15:27;;;;;;;7.15;1.20;;;-2.60;99.90;;;;;;5069295;28;20083;-74
2021/12/25 08:17:55;;;;;;;6.00;1.30;;;-2.70;99.90;;;;;;5070431;28;20045;-76
2021/12/25 08:20:21;;;;;;;7.45;1.60;;;-2.70;99.90;;;;;;5069998;28;20406;-75
2021/12/25 08:22:47;;;;;;;7.00;1.33;;;-2.70;99.90;;;;;;5052055;28;20041;-75
2021/12/25 08:25:14;;;;;;;12.27;2.00;;;-2.70;99.90;;;;;;5070033;28;20102;-75
2021/12/25 08:27:41;;;;;;;8.77;1.25;;;-2.70;99.90;;;;;;5070410;28;20032;-75
2021/12/25 08:30:11;;;;;;;4.30;1.48;;;-2.70;99.90;;;;;;5067978;28;20040;-75
2021/12/25 08:32:38;;;;;;;4.43;1.05;;;-2.70;99.90;;;;;;5068086;28;20040;-75
2021/12/25 08:35:04;;;;;;;5.70;0.50;;;-2.60;99.90;;;;;;5069867;28;20052;-75
2021/12/25 08:37:31;;;;;;;2.53;0.52;;;-2.60;99.90;;;;;;5065810;28;20067;-75
2021/12/25 08:39:57;;;;;;;4.03;0.77;;;-2.70;99.90;;;;;;5051358;28;20502;-75
2021/12/25 08:42:23;;;;;;;4.93;0.77;;;-2.60;99.90;;;;;;5068205;28;20075;-75
2021/12/25 08:45:19;;;;;;;3.17;0.73;;;-2.60;99.90;;;;;;5048006;28;20044;-75
2021/12/25 08:47:38;;;;;;;3.97;0.98;;;-2.60;99.90;;;;;;5065404;28;20446;-75
2021/12/25 08:50:07;;;;;;;3.33;1.00;;;-2.60;99.90;;;;;;5069075;28;20230;-75
2021/12/25 08:52:33;;;;;;;2.88;0.75;;;-2.60;99.90;;;;;;5069415;28;20079;-74
2021/12/25 08:54:58;;;;;;;5.32;1.00;;;-2.60;99.90;;;;;;5068807;28;20076;-75
2021/12/25 08:57:24;;;;;;;5.00;0.98;;;-2.50;99.90;;;;;;5067787;28;20048;-75
2021/12/25 08:59:54;;;;;;;4.75;0.93;;;-2.50;99.90;;;;;;5067686;28;20048;-75
2021/12/25 09:02:21;;;;;;;4.35;0.60;;;-2.50;99.90;;;;;;5068876;28;20036;-74
2021/12/25 09:04:49;;;;;;;6.00;0.70;;;-2.50;99.90;;;;;;5069167;28;20119;-75
2021/12/25 09:07:15;;;;;;;4.55;0.60;;;-2.50;99.90;;;;;;5082326;28;20056;-74
2021/12/25 09:09:41;;;;;;;5.28;1.10;;;-2.50;99.90;;;;;;5071955;28;20051;-74
2021/12/25 09:12:14;;;;;;;4.15;0.60;;;-2.50;99.90;;;;;;5072451;28;20135;-72
2021/12/25 09:14:40;;;;;;;5.38;0.95;;;-2.50;99.90;;;;;;5088448;28;20487;-73
2021/12/25 09:17:08;;;;;;;4.03;0.80;;;-2.50;99.90;;;;;;5072022;28;20036;-73
2021/12/25 09:19:34;;;;;;;5.20;1.38;;;-2.50;99.90;;;;;;5089053;28;20105;-73
2021/12/25 09:22:00;;;;;;;5.70;1.38;;;-2.40;99.90;;;;;;5072610;28;20036;-78
2021/12/25 09:24:25;;;;;;;4.03;1.02;;;-2.40;99.90;;;;;;5052319;28;20044;-73
2021/12/25 09:26:51;;;;;;;4.30;0.80;;;-2.40;99.90;;;;;;5086478;28;20044;-73
2021/12/25 09:29:17;;;;;;;3.85;0.90;;;-2.40;99.90;;;;;;5080933;28;20066;-74
2021/12/25 09:31:42;;;;;;;4.65;1.30;;;-2.30;99.90;;;;;;5069702;28;20159;-74
2021/12/25 09:34:08;;;;;;;8.98;1.05;;;-2.30;99.90;;;;;;5062424;28;20498;-73
2021/12/25 09:36:34;;;;;;;4.22;1.10;;;-2.30;99.90;;;;;;5058222;28;20044;-72
2021/12/25 09:39:02;;;;;;;4.68;1.33;;;-2.30;99.90;;;;;;5071380;28;20054;-73
2021/12/25 09:41:29;;;;;;;5.03;1.20;;;-2.30;99.90;;;;;;5084834;28;20513;-73
2021/12/25 09:43:55;;;;;;;5.93;1.58;;;-2.20;99.90;;;;;;5076831;28;20056;-73
2021/12/25 09:46:21;;;;;;;3.38;1.05;;;-2.20;99.90;;;;;;5088922;28;20399;-73
2021/12/25 09:48:48;;;;;;;4.75;1.05;;;-2.20;99.90;;;;;;5068245;28;20056;-74
2021/12/25 09:51:14;;;;;;;4.70;1.05;;;-2.20;99.90;;;;;;5067925;28;20087;-73
2021/12/25 09:53:40;;;;;;;5.35;1.30;;;-2.20;99.90;;;;;;5069252;28;20088;-73
2021/12/25 09:56:06;;;;;;;4.90;1.20;;;-2.20;99.90;;;;;;5050965;28;20041;-73
2021/12/25 09:58:32;;;;;;;8.90;1.55;;;-2.10;99.90;;;;;;5051447;28;20029;-73
2021/12/25 10:00:59;;;;;;;8.10;1.60;;;-2.10;99.90;;;;;;5069469;28;20048;-73
2021/12/25 10:03:39;;;;;;;3.65;1.10;;;-2.10;99.90;;;;;;5072291;28;20075;-73
2021/12/25 10:06:05;;;;;;;6.57;1.55;;;-2.10;99.90;;;;;;5054591;28;20044;-74
2021/12/25 10:08:31;;;;;;;4.00;1.38;;;-2.10;99.90;;;;;;5062517;28;20521;-73
2021/12/25 10:11:01;;;;;;;4.82;1.55;;;-2.10;99.90;;;;;;5067893;28;20425;-74
2021/12/25 10:13:39;;;;;;;4.18;1.75;;;-2.10;99.90;;;;;;5068502;28;20048;-74
2021/12/25 10:16:28;;;;;;;7.03;2.53;;;-2.10;99.90;;;;;;5062834;28;20040;-74
2021/12/25 10:19:10;;;;;;;3.50;1.35;;;-2.10;99.90;;;;;;5062603;28;20082;-74
2021/12/25 10:21:36;;;;;;;4.72;1.40;;;-2.00;99.90;;;;;;5051767;28;20052;-74
2021/12/25 10:24:07;;;;;;;11.00;2.92;;;-2.00;99.90;;;;;;5068581;28;20048;-74
2021/12/25 10:26:34;;;;;;;7.22;2.28;;;-2.00;99.90;;;;;;5071951;28;20044;-74
2021/12/25 10:29:14;;;;;;;7.35;1.75;;;-2.00;99.90;;;;;;5064091;28;20128;-74
2021/12/25 10:31:39;;;;;;;4.10;1.58;;;-2.00;99.90;;;;;;5051602;28;20045;-74
2021/12/25 10:34:18;;;;;;;7.13;1.38;;;-2.00;99.90;;;;;;5065733;28;20071;-75
2021/12/25 10:36:44;;;;;;;5.40;1.55;;;-1.90;99.90;;;;;;5070948;28;20044;-75
2021/12/25 10:39:21;;;;;;;7.97;1.88;;;-1.90;99.90;;;;;;5069338;28;20047;-74
2021/12/25 10:41:55;;;;;;;4.80;1.52;;;-1.90;99.90;;;;;;5061046;28;20040;-74
2021/12/25 10:44:55;;;;;;;6.93;1.67;;;-1.90;99.90;;;;;;5064754;28;20048;-75
2021/12/25 10:47:26;;;;;;;3.72;1.42;;;-1.80;99.90;;;;;;5063411;28;20829;-75
2021/12/25 10:49:53;;;;;;;6.10;2.03;;;-1.60;99.90;;;;;;5067103;28;20173;-76
2021/12/25 10:52:28;;;;;;;4.60;2.03;;;-1.00;99.90;;;;;;5051899;28;20048;-73
2021/12/25 10:54:57;;;;;;;4.40;1.92;;;-0.50;99.90;;;;;;5067860;28;20057;-73
2021/12/25 10:57:52;;;;;;;6.00;2.03;;;-0.50;99.30;;;;;;5067827;28;20044;-74
2021/12/25 11:00:21;;;;;;;;;;;-0.40;99.90;;;;;;5065597;28;20052;-74
2021/12/25 11:02:52;;;;;;;5.40;1.52;;;-0.30;99.90;;;;;;5070301;28;19927;-74
2021/12/25 11:05:28;;;;;;;5.25;1.80;;;-0.30;99.10;;;;;;5067721;28;20275;-74
2021/12/25 11:08:13;;;;;;;3.88;1.17;;;0.00;99.90;;;;;;5067361;28;20495;-75
2021/12/25 11:10:50;;;;;;;3.65;1.70;;;0.30;98.30;;;;;;5069194;28;20051;-75
2021/12/25 11:13:19;;;;;;;6.10;1.00;;;0.30;98.40;;;;;;5068051;28;20056;-76
2021/12/25 11:15:45;;;;;;;6.15;1.35;;;0.70;99.30;;;;;;5050152;28;21523;-76
2021/12/25 11:18:12;;;;;;;5.03;1.40;;;1.20;98.60;;;;;;5066204;28;20442;-72
2021/12/25 11:20:40;;;;;;;6.43;1.63;;;1.70;97.90;;;;;;5049871;28;20532;-72
2021/12/25 11:23:08;;;;;;;5.13;1.67;;;2.00;97.20;;;;;;5066182;28;20408;-72
2021/12/25 11:25:36;;;;;;;6.47;2.40;;;2.00;93.60;;;;;;5066303;28;20418;-73
2021/12/25 11:28:06;;;;;;;6.72;2.53;;;1.70;95.20;;;;;;5066793;28;20412;-75
2021/12/25 11:30:34;;;;;;;4.90;1.75;;;1.60;95.10;;;;;;5066854;28;20415;-75
2021/12/25 11:33:00;;;;;;;5.40;2.25;;;1.70;94.60;;;;;;5066211;28;20466;-73
2021/12/25 11:35:27;;;;;;;6.13;2.23;;;1.60;93.00;;;;;;5067944;28;20395;-72
2021/12/25 11:37:55;;;;;;;6.15;1.70;;;1.20;93.10;;;;;;5067773;28;20411;-72
2021/12/25 11:40:25;;;;;;;8.18;1.98;;;0.80;95.00;;;;;;5067701;28;20040;-74
2021/12/25 11:42:56;;;;;;;;;;;0.50;96.10;;;;;;5068294;28;20081;-75
2021/12/25 11:45:27;;;;;;;7.72;1.70;;;0.20;96.70;;;;;;5068033;28;19956;-75
2021/12/25 11:47:57;;;;;;;5.20;1.60;;;0.10;97.40;;;;;;5067619;28;20134;-71
2021/12/25 11:50:41;;;;;;;7.43;1.23;;;-0.20;97.50;;;;;;5051108;28;20049;-72
2021/12/25 11:53:19;;;;;;;4.28;1.38;;;-0.30;97.70;;;;;;5068535;28;20051;-72
2021/12/25 11:56:20;;;;;;;3.38;1.42;;;-0.50;98.50;;;;;;5050914;28;20064;-74
2021/12/25 11:59:23;;;;;;;3.40;1.00;;;-0.60;99.10;;;;;;5067544;28;20048;-75
2021/12/25 12:01:52;;;;;;;4.20;1.00;;;-0.60;98.70;;;;;;5062772;28;20052;-73
2021/12/25 12:04:21;;;;;;;2.95;1.10;;;-0.70;98.70;;;;;;5068106;28;20493;-72
2021/12/25 12:06:47;;;;;;;7.60;1.05;;;-0.70;99.80;;;;;;5071568;28;20048;-72
2021/12/25 12:09:31;;;;;;;3.72;1.75;;;-0.70;98.90;;;;;;5054523;28;20147;-73
2021/12/25 12:12:03;;;;;;;7.35;1.60;;;-0.70;98.70;;;;;;5070921;28;20044;-74
2021/12/25 12:14:29;;;;;;;4.57;1.65;;;-0.40;98.40;;;;;;5070938;28;20577;-74
2021/12/25 12:17:03;;;;;;;6.10;1.83;;;-0.10;98.40;;;;;;5054293;28;20052;-74
2021/12/25 12:19:36;;;;;;;3.57;1.27;;;0.20;98.50;;;;;;5054603;28;20053;-75
2021/12/25 12:22:15;;;;;;;3.58;1.20;;;0.30;97.40;;;;;;5037389;28;20056;-75
2021/12/25 12:27:36;;;;;;;3.00;0.80;;;0.30;98.40;;;;;;5054239;28;20097;-75
2021/12/25 12:30:11;;;;;;;4.03;0.90;;;0.80;98.60;;;;;;5069944;28;20076;-75
2021/12/25 12:32:43;;;;;;;7.55;1.73;;;1.10;97.40;;;;;;5053955;28;20080;-75
2021/12/25 12:35:30;;;;;;;5.88;2.50;;;1.00;95.90;;;;;;5070717;28;20437;-76
2021/12/25 12:38:31;;;;;;;5.30;1.55;;;0.80;96.10;;;;;;5037108;28;20052;-76
2021/12/25 12:41:15;;;;;;;7.22;2.28;;;0.80;96.40;;;;;;5070292;28;20040;-76
2021/12/25 12:44:07;;;;;;;8.40;2.35;;;0.50;96.30;;;;;;5070523;28;20072;-76
2021/12/25 12:46:48;;;;;;;6.70;1.95;;;0.30;96.90;;;;;;5054078;28;20384;-76
2021/12/25 12:49:16;;;;;;;7.65;2.03;;;0.10;98.00;;;;;;5070583;28;20056;-76
2021/12/25 12:51:42;;;;;;;5.82;1.63;;;0.30;98.60;;;;;;5071019;28;20037;-76
2021/12/25 12:54:09;;;;;;;5.20;1.33;;;0.40;97.80;;;;;;5071678;28;20051;-76
2021/12/25 12:56:36;;;;;;;3.05;1.33;;;0.50;97.90;;;;;;5053616;28;20051;-76
2021/12/25 12:59:04;;;;;;;5.70;1.58;;;0.40;98.60;;;;;;5036952;28;20048;-76
2021/12/25 13:01:29;;;;;;;4.47;1.95;;;0.40;98.40;;;;;;5076454;28;20051;-76
2021/12/25 13:04:00;;;;;;;4.63;1.00;;;0.60;99.40;;;;;;5073938;28;20040;-76
2021/12/25 13:06:30;;;;;;;3.85;0.73;;;0.70;98.30;;;;;;5091571;28;20151;-76
2021/12/25 13:09:04;;;;;;;4.55;0.77;;;0.80;97.80;;;;;;5091519;28;20085;-76
2021/12/25 13:11:38;;;;;;;5.05;0.68;;;0.90;97.00;;;;;;5073217;28;20054;-76
2021/12/25 13:14:05;;;;;;;2.20;0.70;;;0.80;97.40;;;;;;5073478;28;20511;-76
2021/12/25 13:16:38;;;;;;;4.70;0.70;;;0.70;97.60;;;;;;5072689;28;20051;-74
2021/12/25 13:19:06;;;;;;;5.65;1.05;;;0.60;97.80;;;;;;5072242;28;20147;-76
2021/12/25 13:21:33;;;;;;;3.80;0.82;;;0.50;98.10;;;;;;5056051;28;20044;-76
2021/12/25 13:24:03;;;;;;;3.20;0.60;;;0.40;98.00;;;;;;5071722;28;20048;-74
2021/12/25 13:26:34;;;;;;;2.53;0.63;;;0.50;98.20;;;;;;5072476;28;20044;-74
2021/12/25 13:29:07;;;;;;;3.78;0.80;;;0.60;97.90;;;;;;5069799;28;20427;-74
2021/12/25 13:31:35;;;;;;;4.10;0.60;;;0.80;97.70;;;;;;5071262;28;20036;-74
2021/12/25 13:34:11;;;;;;;3.38;1.05;;;0.90;96.60;;;;;;5074170;28;20076;-74
2021/12/25 13:36:39;;;;;;;3.45;0.93;;;0.90;96.00;;;;;;5072103;28;20050;-74
2021/12/25 13:39:15;;;;;;;3.33;0.88;;;0.60;94.70;;;;;;5073179;28;20418;-74
2021/12/25 13:41:47;;;;;;;4.72;1.17;;;0.40;96.00;;;;;;5071873;28;20040;-75
2021/12/25 13:44:19;;;;;;;5.20;1.13;;;0.30;96.30;;;;;;5072316;28;20051;-75
2021/12/25 13:47:03;;;;;;;2.55;0.60;;;0.20;96.90;;;;;;5072851;28;20051;-75
2021/12/25 13:49:36;;;;;;;2.50;0.70;;;0.10;97.10;;;;;;5069621;28;20052;-75
2021/12/25 13:52:08;;;;;;;3.22;0.57;;;0.20;97.70;;;;;;5068925;28;20139;-75
2021/12/25 13:54:36;;;;;;;2.63;0.80;;;0.30;97.00;;;;;;5052749;28;20410;-75
2021/12/25 13:57:03;;;;;;;2.20;0.50;;;0.20;97.10;;;;;;5069064;28;20063;-75
2021/12/25 13:59:28;;;;;;;3.88;0.85;;;0.30;96.80;;;;;;5071627;28;20431;-73
2021/12/25 14:01:58;;;;;;;;;;;0.20;96.00;;;;;;5072928;28;20116;-73
2021/12/25 14:04:24;;;;;;;3.42;1.00;;;0.20;96.10;;;;;;5090661;28;20039;-72
2021/12/25 14:06:50;;;;;;;2.97;0.60;;;0.10;97.30;;;;;;5090111;28;20138;-72
2021/12/25 14:09:15;;;;;;;2.90;0.80;;;0.10;97.70;;;;;;5068885;28;20048;-72
2021/12/25 14:11:53;;;;;;;4.05;1.20;;;0.20;98.00;;;;;;5070724;28;20426;-73
2021/12/25 14:14:20;;;;;;;3.28;0.85;;;0.10;98.40;;;;;;5072206;28;20520;-73
2021/12/25 14:16:47;;;;;;;3.33;0.63;;;0.20;97.50;;;;;;5068215;28;20144;-73
2021/12/25 14:19:13;;;;;;;2.45;0.70;;;0.20;97.30;;;;;;5068244;28;20131;-73
2021/12/25 14:21:50;;;;;;;26.13;2.65;;;0.30;97.40;;;;;;5051979;28;20037;-73
2021/12/25 14:24:16;;;;;;;11.30;1.50;;;0.40;97.60;;;;;;5068147;28;20047;-72
2021/12/25 14:26:42;;;;;;;2.88;0.70;;;0.20;97.10;;;;;;5072336;28;20093;-74